sensor_id;sensor_type;location;lat;lon;timestamp;temperature;humidity
51476;DHT22;37554;50.362;7.568;2023-05-15T00:02:11;21.50;51.60
51476;DHT22;37554;50.362;7.568;2023-05-15T00:04:37;21.50;51.70
51476;DHT22;37554;50.362;7.568;2023-05-15T00:07:03;21.50;51.70
51476;DHT22;37554;50.362;7.568;2023-05-15T00:09:28;21.50;51.70
51476;DHT22;37554;50.362;7.568;2023-05-15T00:11:54;21.50;51.80
51476;DHT22;37554;50.362;7.568;2023-05-15T00:14:20;21.40;51.80
51476;DHT22;37554;50.362;7.568;2023-05-15T00:16:45;21.50;51.90
51476;DHT22;37554;50.362;7.568;2023-05-15T00:19:11;21.40;51.90
51476;DHT22;37554;50.362;7.568;2023-05-15T00:21:37;21.40;51.90
51476;DHT22;37554;50.362;7.568;2023-05-15T00:24:02;21.40;51.90
51476;DHT22;37554;50.362;7.568;2023-05-15T00:26:28;21.40;51.90
51476;DHT22;37554;50.362;7.568;2023-05-15T00:28:54;21.40;52.00
51476;DHT22;37554;50.362;7.568;2023-05-15T00:31:19;21.30;52.00
51476;DHT22;37554;50.362;7.568;2023-05-15T00:33:45;21.30;52.00
51476;DHT22;37554;50.362;7.568;2023-05-15T00:36:11;21.30;52.00
51476;DHT22;37554;50.362;7.568;2023-05-15T00:38:37;21.30;52.00
51476;DHT22;37554;50.362;7.568;2023-05-15T00:41:04;21.30;52.10
51476;DHT22;37554;50.362;7.568;2023-05-15T00:43:30;21.30;52.10
51476;DHT22;37554;50.362;7.568;2023-05-15T00:45:57;21.20;52.10
51476;DHT22;37554;50.362;7.568;2023-05-15T00:48:23;21.30;52.20
51476;DHT22;37554;50.362;7.568;2023-05-15T00:50:50;21.20;52.20
51476;DHT22;37554;50.362;7.568;2023-05-15T00:53:17;21.20;52.20
51476;DHT22;37554;50.362;7.568;2023-05-15T00:55:45;21.10;52.20
51476;DHT22;37554;50.362;7.568;2023-05-15T00:58:13;21.10;52.20
51476;DHT22;37554;50.362;7.568;2023-05-15T01:00:40;21.10;52.20
51476;DHT22;37554;50.362;7.568;2023-05-15T01:03:06;21.10;52.30
51476;DHT22;37554;50.362;7.568;2023-05-15T01:05:32;21.10;52.30
51476;DHT22;37554;50.362;7.568;2023-05-15T01:08:25;21.10;52.30
51476;DHT22;37554;50.362;7.568;2023-05-15T01:10:51;21.10;52.40
51476;DHT22;37554;50.362;7.568;2023-05-15T01:13:19;21.00;52.30
51476;DHT22;37554;50.362;7.568;2023-05-15T01:15:46;21.00;52.30
51476;DHT22;37554;50.362;7.568;2023-05-15T01:18:13;21.00;52.40
51476;DHT22;37554;50.362;7.568;2023-05-15T01:20:49;21.00;52.40
51476;DHT22;37554;50.362;7.568;2023-05-15T01:23:26;20.90;52.40
51476;DHT22;37554;50.362;7.568;2023-05-15T01:26:12;20.90;52.40
51476;DHT22;37554;50.362;7.568;2023-05-15T01:28:47;20.90;52.40
51476;DHT22;37554;50.362;7.568;2023-05-15T01:31:18;20.90;52.40
51476;DHT22;37554;50.362;7.568;2023-05-15T01:33:50;20.90;52.50
51476;DHT22;37554;50.362;7.568;2023-05-15T01:36:32;20.90;52.50
51476;DHT22;37554;50.362;7.568;2023-05-15T01:39:01;20.80;52.50
51476;DHT22;37554;50.362;7.568;2023-05-15T01:41:28;20.80;52.50
51476;DHT22;37554;50.362;7.568;2023-05-15T01:44:03;20.80;52.50
51476;DHT22;37554;50.362;7.568;2023-05-15T01:46:30;20.80;52.60
51476;DHT22;37554;50.362;7.568;2023-05-15T01:49:00;20.70;52.60
51476;DHT22;37554;50.362;7.568;2023-05-15T01:51:28;20.80;52.70
51476;DHT22;37554;50.362;7.568;2023-05-15T01:53:56;20.70;52.70
51476;DHT22;37554;50.362;7.568;2023-05-15T01:56:24;20.70;52.70
51476;DHT22;37554;50.362;7.568;2023-05-15T01:58:51;20.70;52.70
51476;DHT22;37554;50.362;7.568;2023-05-15T02:01:18;20.70;52.70
51476;DHT22;37554;50.362;7.568;2023-05-15T02:03:45;20.70;52.70
51476;DHT22;37554;50.362;7.568;2023-05-15T02:06:12;20.60;52.60
51476;DHT22;37554;50.362;7.568;2023-05-15T02:08:38;20.60;52.60
51476;DHT22;37554;50.362;7.568;2023-05-15T02:11:05;20.60;52.80
51476;DHT22;37554;50.362;7.568;2023-05-15T02:13:32;20.60;52.60
51476;DHT22;37554;50.362;7.568;2023-05-15T02:15:58;20.60;52.60
51476;DHT22;37554;50.362;7.568;2023-05-15T02:18:24;20.60;52.60
51476;DHT22;37554;50.362;7.568;2023-05-15T02:20:49;20.50;52.60
51476;DHT22;37554;50.362;7.568;2023-05-15T02:23:15;20.50;52.60
51476;DHT22;37554;50.362;7.568;2023-05-15T02:31:35;20.50;52.80
51476;DHT22;37554;50.362;7.568;2023-05-15T02:34:22;20.50;52.70
51476;DHT22;37554;50.362;7.568;2023-05-15T02:36:52;20.40;52.70
51476;DHT22;37554;50.362;7.568;2023-05-15T02:39:19;20.40;52.80
51476;DHT22;37554;50.362;7.568;2023-05-15T02:41:48;20.40;52.80
51476;DHT22;37554;50.362;7.568;2023-05-15T02:44:15;20.40;52.80
51476;DHT22;37554;50.362;7.568;2023-05-15T02:46:41;20.30;52.80
51476;DHT22;37554;50.362;7.568;2023-05-15T02:49:07;20.30;52.80
51476;DHT22;37554;50.362;7.568;2023-05-15T02:51:35;20.30;52.80
51476;DHT22;37554;50.362;7.568;2023-05-15T02:54:01;20.30;52.90
51476;DHT22;37554;50.362;7.568;2023-05-15T02:56:27;20.30;52.90
51476;DHT22;37554;50.362;7.568;2023-05-15T02:58:52;20.30;52.90
51476;DHT22;37554;50.362;7.568;2023-05-15T03:01:18;20.30;52.90
51476;DHT22;37554;50.362;7.568;2023-05-15T03:03:45;20.20;52.90
51476;DHT22;37554;50.362;7.568;2023-05-15T03:06:10;20.20;52.90
51476;DHT22;37554;50.362;7.568;2023-05-15T03:08:36;20.20;52.90
51476;DHT22;37554;50.362;7.568;2023-05-15T03:11:02;20.20;53.00
51476;DHT22;37554;50.362;7.568;2023-05-15T03:13:27;20.20;53.00
51476;DHT22;37554;50.362;7.568;2023-05-15T03:15:53;20.20;53.00
51476;DHT22;37554;50.362;7.568;2023-05-15T03:18:18;20.20;53.10
51476;DHT22;37554;50.362;7.568;2023-05-15T03:20:45;20.10;53.00
51476;DHT22;37554;50.362;7.568;2023-05-15T03:23:11;20.10;53.10
51476;DHT22;37554;50.362;7.568;2023-05-15T03:25:36;20.10;53.10
51476;DHT22;37554;50.362;7.568;2023-05-15T03:28:02;20.10;53.10
51476;DHT22;37554;50.362;7.568;2023-05-15T03:30:28;20.10;53.80
51476;DHT22;37554;50.362;7.568;2023-05-15T03:32:53;20.10;53.20
51476;DHT22;37554;50.362;7.568;2023-05-15T03:35:21;20.00;53.20
51476;DHT22;37554;50.362;7.568;2023-05-15T03:37:47;20.10;53.30
51476;DHT22;37554;50.362;7.568;2023-05-15T03:40:13;20.10;53.30
51476;DHT22;37554;50.362;7.568;2023-05-15T03:42:38;20.00;53.20
51476;DHT22;37554;50.362;7.568;2023-05-15T03:45:04;20.00;53.30
51476;DHT22;37554;50.362;7.568;2023-05-15T03:47:30;20.00;53.30
51476;DHT22;37554;50.362;7.568;2023-05-15T03:49:55;20.00;53.30
51476;DHT22;37554;50.362;7.568;2023-05-15T03:52:21;20.00;53.40
51476;DHT22;37554;50.362;7.568;2023-05-15T03:54:47;19.90;53.40
51476;DHT22;37554;50.362;7.568;2023-05-15T03:57:12;20.00;53.40
51476;DHT22;37554;50.362;7.568;2023-05-15T03:59:38;20.00;53.50
51476;DHT22;37554;50.362;7.568;2023-05-15T04:02:04;19.90;53.40
51476;DHT22;37554;50.362;7.568;2023-05-15T04:04:29;19.90;53.50
51476;DHT22;37554;50.362;7.568;2023-05-15T04:06:55;20.00;53.60
51476;DHT22;37554;50.362;7.568;2023-05-15T04:09:20;20.00;53.50
51476;DHT22;37554;50.362;7.568;2023-05-15T04:11:46;20.00;53.50
51476;DHT22;37554;50.362;7.568;2023-05-15T04:14:12;20.00;53.60
51476;DHT22;37554;50.362;7.568;2023-05-15T04:16:37;20.00;53.60
51476;DHT22;37554;50.362;7.568;2023-05-15T04:19:03;19.90;53.60
51476;DHT22;37554;50.362;7.568;2023-05-15T04:21:29;20.00;53.60
51476;DHT22;37554;50.362;7.568;2023-05-15T04:23:55;19.90;53.60
51476;DHT22;37554;50.362;7.568;2023-05-15T04:26:20;19.90;53.70
51476;DHT22;37554;50.362;7.568;2023-05-15T04:28:46;19.90;53.70
51476;DHT22;37554;50.362;7.568;2023-05-15T04:31:11;19.90;53.80
51476;DHT22;37554;50.362;7.568;2023-05-15T04:33:37;19.90;53.80
51476;DHT22;37554;50.362;7.568;2023-05-15T04:36:06;19.90;53.80
51476;DHT22;37554;50.362;7.568;2023-05-15T04:38:32;19.90;53.80
51476;DHT22;37554;50.362;7.568;2023-05-15T04:40:58;20.00;53.90
51476;DHT22;37554;50.362;7.568;2023-05-15T04:43:24;19.90;53.90
51476;DHT22;37554;50.362;7.568;2023-05-15T04:45:50;20.00;53.90
51476;DHT22;37554;50.362;7.568;2023-05-15T04:48:15;20.00;54.00
51476;DHT22;37554;50.362;7.568;2023-05-15T04:50:43;20.00;54.00
51476;DHT22;37554;50.362;7.568;2023-05-15T04:53:09;20.00;54.00
51476;DHT22;37554;50.362;7.568;2023-05-15T04:55:35;20.00;54.10
51476;DHT22;37554;50.362;7.568;2023-05-15T04:58:00;20.00;54.10
51476;DHT22;37554;50.362;7.568;2023-05-15T05:00:27;20.00;54.10
51476;DHT22;37554;50.362;7.568;2023-05-15T05:02:52;20.00;54.10
51476;DHT22;37554;50.362;7.568;2023-05-15T05:05:18;20.00;54.10
51476;DHT22;37554;50.362;7.568;2023-05-15T05:07:44;20.00;54.10
51476;DHT22;37554;50.362;7.568;2023-05-15T05:10:11;20.00;54.10
51476;DHT22;37554;50.362;7.568;2023-05-15T05:12:36;20.00;54.10
51476;DHT22;37554;50.362;7.568;2023-05-15T05:15:02;20.10;54.10
51476;DHT22;37554;50.362;7.568;2023-05-15T05:17:28;20.10;54.10
51476;DHT22;37554;50.362;7.568;2023-05-15T05:19:55;20.10;54.10
51476;DHT22;37554;50.362;7.568;2023-05-15T05:22:20;20.10;54.10
51476;DHT22;37554;50.362;7.568;2023-05-15T05:24:46;20.10;54.10
51476;DHT22;37554;50.362;7.568;2023-05-15T05:27:12;20.10;54.10
51476;DHT22;37554;50.362;7.568;2023-05-15T05:29:37;20.20;54.20
51476;DHT22;37554;50.362;7.568;2023-05-15T05:32:04;20.20;54.10
51476;DHT22;37554;50.362;7.568;2023-05-15T05:34:31;20.20;54.00
51476;DHT22;37554;50.362;7.568;2023-05-15T05:36:56;20.20;54.10
51476;DHT22;37554;50.362;7.568;2023-05-15T05:39:22;20.20;54.10
51476;DHT22;37554;50.362;7.568;2023-05-15T05:41:47;20.20;54.00
51476;DHT22;37554;50.362;7.568;2023-05-15T05:44:13;20.30;54.10
51476;DHT22;37554;50.362;7.568;2023-05-15T05:46:39;20.30;54.10
51476;DHT22;37554;50.362;7.568;2023-05-15T05:49:04;20.00;54.70
51476;DHT22;37554;50.362;7.568;2023-05-15T05:51:30;19.80;55.30
51476;DHT22;37554;50.362;7.568;2023-05-15T05:53:56;19.50;55.90
51476;DHT22;37554;50.362;7.568;2023-05-15T05:56:21;19.40;56.30
51476;DHT22;37554;50.362;7.568;2023-05-15T05:58:48;19.20;56.90
51476;DHT22;37554;50.362;7.568;2023-05-15T06:01:13;19.20;57.20
51476;DHT22;37554;50.362;7.568;2023-05-15T06:03:41;19.40;57.20
51476;DHT22;37554;50.362;7.568;2023-05-15T06:06:07;19.50;57.00
51476;DHT22;37554;50.362;7.568;2023-05-15T06:08:33;19.60;56.80
51476;DHT22;37554;50.362;7.568;2023-05-15T06:10:58;19.80;56.50
51476;DHT22;37554;50.362;7.568;2023-05-15T06:13:24;19.80;56.30
51476;DHT22;37554;50.362;7.568;2023-05-15T06:15:50;19.90;56.20
51476;DHT22;37554;50.362;7.568;2023-05-15T06:18:15;20.00;55.90
51476;DHT22;37554;50.362;7.568;2023-05-15T06:20:41;20.10;55.90
51476;DHT22;37554;50.362;7.568;2023-05-15T06:23:07;20.20;55.70
51476;DHT22;37554;50.362;7.568;2023-05-15T06:25:33;20.20;55.60
51476;DHT22;37554;50.362;7.568;2023-05-15T06:27:59;20.30;55.50
51476;DHT22;37554;50.362;7.568;2023-05-15T06:30:25;20.40;55.40
51476;DHT22;37554;50.362;7.568;2023-05-15T06:32:52;20.40;55.30
51476;DHT22;37554;50.362;7.568;2023-05-15T06:35:18;20.50;55.30
51476;DHT22;37554;50.362;7.568;2023-05-15T06:37:43;20.50;55.20
51476;DHT22;37554;50.362;7.568;2023-05-15T06:40:10;20.50;55.20
51476;DHT22;37554;50.362;7.568;2023-05-15T06:42:36;20.60;55.30
51476;DHT22;37554;50.362;7.568;2023-05-15T06:45:02;20.60;55.20
51476;DHT22;37554;50.362;7.568;2023-05-15T06:47:27;20.60;55.20
51476;DHT22;37554;50.362;7.568;2023-05-15T06:49:53;20.70;55.20
51476;DHT22;37554;50.362;7.568;2023-05-15T06:52:20;20.70;55.10
51476;DHT22;37554;50.362;7.568;2023-05-15T06:54:45;20.80;55.10
51476;DHT22;37554;50.362;7.568;2023-05-15T06:57:11;20.80;55.10
51476;DHT22;37554;50.362;7.568;2023-05-15T06:59:37;20.90;55.10
51476;DHT22;37554;50.362;7.568;2023-05-15T07:02:03;20.90;55.00
51476;DHT22;37554;50.362;7.568;2023-05-15T07:04:29;21.00;55.00
51476;DHT22;37554;50.362;7.568;2023-05-15T07:06:57;21.00;55.60
51476;DHT22;37554;50.362;7.568;2023-05-15T07:09:23;21.00;55.00
51476;DHT22;37554;50.362;7.568;2023-05-15T07:11:49;21.00;54.90
51476;DHT22;37554;50.362;7.568;2023-05-15T07:14:15;21.10;55.00
51476;DHT22;37554;50.362;7.568;2023-05-15T07:16:40;21.10;54.90
51476;DHT22;37554;50.362;7.568;2023-05-15T07:19:09;21.20;54.90
51476;DHT22;37554;50.362;7.568;2023-05-15T07:21:35;21.20;54.80
51476;DHT22;37554;50.362;7.568;2023-05-15T07:24:01;21.30;54.80
51476;DHT22;37554;50.362;7.568;2023-05-15T07:26:27;21.30;54.80
51476;DHT22;37554;50.362;7.568;2023-05-15T07:28:52;21.30;54.70
51476;DHT22;37554;50.362;7.568;2023-05-15T07:31:19;21.30;54.60
51476;DHT22;37554;50.362;7.568;2023-05-15T07:33:45;21.40;54.60
51476;DHT22;37554;50.362;7.568;2023-05-15T07:36:11;21.40;54.60
51476;DHT22;37554;50.362;7.568;2023-05-15T07:38:36;21.40;54.60
51476;DHT22;37554;50.362;7.568;2023-05-15T07:41:02;21.40;54.60
51476;DHT22;37554;50.362;7.568;2023-05-15T07:43:27;21.30;54.60
51476;DHT22;37554;50.362;7.568;2023-05-15T07:45:53;21.30;54.80
51476;DHT22;37554;50.362;7.568;2023-05-15T07:48:19;21.00;55.20
51476;DHT22;37554;50.362;7.568;2023-05-15T07:50:46;20.80;55.80
51476;DHT22;37554;50.362;7.568;2023-05-15T07:53:14;20.70;56.20
51476;DHT22;37554;50.362;7.568;2023-05-15T07:55:43;20.50;56.50
51476;DHT22;37554;50.362;7.568;2023-05-15T07:58:09;20.40;57.00
51476;DHT22;37554;50.362;7.568;2023-05-15T08:00:35;20.20;57.10
51476;DHT22;37554;50.362;7.568;2023-05-15T08:03:01;20.20;57.00
51476;DHT22;37554;50.362;7.568;2023-05-15T08:05:27;20.20;56.80
51476;DHT22;37554;50.362;7.568;2023-05-15T08:07:54;20.20;56.80
51476;DHT22;37554;50.362;7.568;2023-05-15T08:10:20;20.20;56.70
51476;DHT22;37554;50.362;7.568;2023-05-15T08:12:46;20.30;56.40
51476;DHT22;37554;50.362;7.568;2023-05-15T08:15:13;20.30;56.20
51476;DHT22;37554;50.362;7.568;2023-05-15T08:17:38;20.50;56.10
51476;DHT22;37554;50.362;7.568;2023-05-15T08:20:05;20.70;55.80
51476;DHT22;37554;50.362;7.568;2023-05-15T08:22:30;20.90;55.40
51476;DHT22;37554;50.362;7.568;2023-05-15T08:24:58;21.10;55.20
51476;DHT22;37554;50.362;7.568;2023-05-15T08:27:25;21.20;54.90
51476;DHT22;37554;50.362;7.568;2023-05-15T08:29:51;21.30;54.70
51476;DHT22;37554;50.362;7.568;2023-05-15T08:32:17;21.30;54.50
51476;DHT22;37554;50.362;7.568;2023-05-15T08:34:43;21.40;54.50
51476;DHT22;37554;50.362;7.568;2023-05-15T08:37:09;21.40;54.30
51476;DHT22;37554;50.362;7.568;2023-05-15T08:39:34;21.50;54.20
51476;DHT22;37554;50.362;7.568;2023-05-15T08:42:04;21.40;54.00
51476;DHT22;37554;50.362;7.568;2023-05-15T08:44:32;21.30;54.30
51476;DHT22;37554;50.362;7.568;2023-05-15T08:46:58;21.20;54.60
51476;DHT22;37554;50.362;7.568;2023-05-15T08:51:59;21.20;54.60
51476;DHT22;37554;50.362;7.568;2023-05-15T08:54:26;21.30;54.50
51476;DHT22;37554;50.362;7.568;2023-05-15T08:56:52;21.30;54.30
51476;DHT22;37554;50.362;7.568;2023-05-15T08:59:18;21.40;54.30
51476;DHT22;37554;50.362;7.568;2023-05-15T09:01:44;21.50;54.10
51476;DHT22;37554;50.362;7.568;2023-05-15T09:04:09;21.50;54.10
51476;DHT22;37554;50.362;7.568;2023-05-15T09:06:35;21.50;54.00
51476;DHT22;37554;50.362;7.568;2023-05-15T09:09:02;21.50;53.90
51476;DHT22;37554;50.362;7.568;2023-05-15T09:11:31;21.50;53.80
51476;DHT22;37554;50.362;7.568;2023-05-15T09:13:58;21.60;53.80
51476;DHT22;37554;50.362;7.568;2023-05-15T09:16:24;21.60;53.70
51476;DHT22;37554;50.362;7.568;2023-05-15T09:18:51;21.70;53.60
51476;DHT22;37554;50.362;7.568;2023-05-15T09:21:22;21.80;53.50
51476;DHT22;37554;50.362;7.568;2023-05-15T09:23:52;21.90;53.50
51476;DHT22;37554;50.362;7.568;2023-05-15T09:26:18;21.90;53.40
51476;DHT22;37554;50.362;7.568;2023-05-15T09:28:44;21.90;53.30
51476;DHT22;37554;50.362;7.568;2023-05-15T09:31:10;21.90;53.60
51476;DHT22;37554;50.362;7.568;2023-05-15T09:33:37;22.10;53.40
51476;DHT22;37554;50.362;7.568;2023-05-15T09:36:04;22.20;52.90
51476;DHT22;37554;50.362;7.568;2023-05-15T09:38:48;22.30;52.60
51476;DHT22;37554;50.362;7.568;2023-05-15T09:41:24;22.40;52.50
51476;DHT22;37554;50.362;7.568;2023-05-15T09:43:54;22.50;52.40
51476;DHT22;37554;50.362;7.568;2023-05-15T09:46:24;22.60;52.40
51476;DHT22;37554;50.362;7.568;2023-05-15T09:48:54;22.70;52.50
51476;DHT22;37554;50.362;7.568;2023-05-15T09:51:20;22.70;52.50
51476;DHT22;37554;50.362;7.568;2023-05-15T09:53:53;22.90;52.30
51476;DHT22;37554;50.362;7.568;2023-05-15T09:56:19;22.90;52.10
51476;DHT22;37554;50.362;7.568;2023-05-15T09:58:57;22.80;52.00
51476;DHT22;37554;50.362;7.568;2023-05-15T10:01:24;22.80;52.20
51476;DHT22;37554;50.362;7.568;2023-05-15T10:03:57;22.80;52.10
51476;DHT22;37554;50.362;7.568;2023-05-15T10:06:26;23.00;52.30
51476;DHT22;37554;50.362;7.568;2023-05-15T10:08:55;23.10;52.30
51476;DHT22;37554;50.362;7.568;2023-05-15T10:11:22;23.30;52.30
51476;DHT22;37554;50.362;7.568;2023-05-15T10:13:51;23.50;52.10
51476;DHT22;37554;50.362;7.568;2023-05-15T10:16:19;23.70;51.80
51476;DHT22;37554;50.362;7.568;2023-05-15T10:19:00;24.00;51.70
51476;DHT22;37554;50.362;7.568;2023-05-15T10:21:31;24.00;51.30
51476;DHT22;37554;50.362;7.568;2023-05-15T10:23:59;24.00;51.20
51476;DHT22;37554;50.362;7.568;2023-05-15T10:26:40;23.90;51.10
51476;DHT22;37554;50.362;7.568;2023-05-15T10:29:09;24.10;50.80
51476;DHT22;37554;50.362;7.568;2023-05-15T10:31:36;24.50;50.60
51476;DHT22;37554;50.362;7.568;2023-05-15T10:34:03;24.80;50.10
51476;DHT22;37554;50.362;7.568;2023-05-15T10:36:31;25.20;49.30
51476;DHT22;37554;50.362;7.568;2023-05-15T10:39:01;25.20;48.90
51476;DHT22;37554;50.362;7.568;2023-05-15T10:41:32;25.30;48.40
51476;DHT22;37554;50.362;7.568;2023-05-15T10:44:00;25.40;48.00
51476;DHT22;37554;50.362;7.568;2023-05-15T10:46:26;25.50;46.60
51476;DHT22;37554;50.362;7.568;2023-05-15T10:48:53;25.30;47.60
51476;DHT22;37554;50.362;7.568;2023-05-15T10:51:29;25.80;47.00
51476;DHT22;37554;50.362;7.568;2023-05-15T10:53:56;26.30;45.60
51476;DHT22;37554;50.362;7.568;2023-05-15T10:56:28;26.30;45.60
51476;DHT22;37554;50.362;7.568;2023-05-15T10:58:55;26.80;45.60
51476;DHT22;37554;50.362;7.568;2023-05-15T11:01:28;27.20;44.80
51476;DHT22;37554;50.362;7.568;2023-05-15T11:04:16;27.00;44.30
51476;DHT22;37554;50.362;7.568;2023-05-15T11:06:47;27.00;44.40
51476;DHT22;37554;50.362;7.568;2023-05-15T11:09:37;26.90;45.60
51476;DHT22;37554;50.362;7.568;2023-05-15T11:12:04;27.50;44.20
51476;DHT22;37554;50.362;7.568;2023-05-15T11:14:31;27.80;44.30
51476;DHT22;37554;50.362;7.568;2023-05-15T11:17:08;27.60;44.20
51476;DHT22;37554;50.362;7.568;2023-05-15T11:27:25;27.80;43.70
51476;DHT22;37554;50.362;7.568;2023-05-15T11:30:12;27.70;44.00
51476;DHT22;37554;50.362;7.568;2023-05-15T11:35:43;27.40;44.40
51476;DHT22;37554;50.362;7.568;2023-05-15T11:38:18;27.40;43.90
51476;DHT22;37554;50.362;7.568;2023-05-15T11:43:29;27.20;44.70
51476;DHT22;37554;50.362;7.568;2023-05-15T11:46:16;27.10;44.40
51476;DHT22;37554;50.362;7.568;2023-05-15T11:48:46;27.00;44.10
51476;DHT22;37554;50.362;7.568;2023-05-15T11:51:23;26.80;45.50
51476;DHT22;37554;50.362;7.568;2023-05-15T11:53:51;26.70;45.00
51476;DHT22;37554;50.362;7.568;2023-05-15T11:56:18;26.70;45.00
51476;DHT22;37554;50.362;7.568;2023-05-15T11:58:50;26.60;45.40
51476;DHT22;37554;50.362;7.568;2023-05-15T12:01:16;26.50;45.50
51476;DHT22;37554;50.362;7.568;2023-05-15T12:03:41;26.40;45.80
51476;DHT22;37554;50.362;7.568;2023-05-15T12:06:09;26.40;46.60
51476;DHT22;37554;50.362;7.568;2023-05-15T12:08:36;26.30;46.60
51476;DHT22;37554;50.362;7.568;2023-05-15T12:11:06;26.30;46.40
51476;DHT22;37554;50.362;7.568;2023-05-15T12:13:33;26.20;46.80
51476;DHT22;37554;50.362;7.568;2023-05-15T12:16:00;26.30;46.30
51476;DHT22;37554;50.362;7.568;2023-05-15T12:18:26;26.30;46.00
51476;DHT22;37554;50.362;7.568;2023-05-15T12:20:53;26.30;46.10
51476;DHT22;37554;50.362;7.568;2023-05-15T12:23:23;26.30;46.40
51476;DHT22;37554;50.362;7.568;2023-05-15T12:25:51;26.30;46.80
51476;DHT22;37554;50.362;7.568;2023-05-15T12:28:19;26.30;46.30
51476;DHT22;37554;50.362;7.568;2023-05-15T12:30:45;26.30;46.60
51476;DHT22;37554;50.362;7.568;2023-05-15T12:33:12;26.40;46.70
51476;DHT22;37554;50.362;7.568;2023-05-15T12:35:42;26.40;46.40
51476;DHT22;37554;50.362;7.568;2023-05-15T12:38:13;26.50;46.20
51476;DHT22;37554;50.362;7.568;2023-05-15T12:40:40;26.60;46.20
51476;DHT22;37554;50.362;7.568;2023-05-15T12:43:07;26.60;46.20
51476;DHT22;37554;50.362;7.568;2023-05-15T12:45:37;26.70;46.80
51476;DHT22;37554;50.362;7.568;2023-05-15T12:48:03;26.80;46.90
51476;DHT22;37554;50.362;7.568;2023-05-15T12:50:31;26.80;46.60
51476;DHT22;37554;50.362;7.568;2023-05-15T12:52:59;26.80;45.80
51476;DHT22;37554;50.362;7.568;2023-05-15T12:55:27;26.80;45.30
51476;DHT22;37554;50.362;7.568;2023-05-15T12:57:57;26.80;45.30
51476;DHT22;37554;50.362;7.568;2023-05-15T13:00:23;26.90;45.30
51476;DHT22;37554;50.362;7.568;2023-05-15T13:02:53;26.80;45.60
51476;DHT22;37554;50.362;7.568;2023-05-15T13:05:22;26.90;45.10
51476;DHT22;37554;50.362;7.568;2023-05-15T13:07:47;26.90;45.10
51476;DHT22;37554;50.362;7.568;2023-05-15T13:10:13;26.70;44.80
51476;DHT22;37554;50.362;7.568;2023-05-15T13:12:42;26.50;45.10
51476;DHT22;37554;50.362;7.568;2023-05-15T13:15:22;26.50;45.30
51476;DHT22;37554;50.362;7.568;2023-05-15T13:17:53;26.60;45.50
51476;DHT22;37554;50.362;7.568;2023-05-15T13:20:22;26.70;45.80
51476;DHT22;37554;50.362;7.568;2023-05-15T13:22:48;26.40;45.20
51476;DHT22;37554;50.362;7.568;2023-05-15T13:25:20;26.30;44.90
51476;DHT22;37554;50.362;7.568;2023-05-15T13:27:49;26.10;45.10
51476;DHT22;37554;50.362;7.568;2023-05-15T13:30:16;26.20;45.30
51476;DHT22;37554;50.362;7.568;2023-05-15T13:32:42;26.10;45.20
51476;DHT22;37554;50.362;7.568;2023-05-15T13:35:08;26.20;45.00
51476;DHT22;37554;50.362;7.568;2023-05-15T13:37:35;26.40;44.80
51476;DHT22;37554;50.362;7.568;2023-05-15T13:40:01;26.50;44.70
51476;DHT22;37554;50.362;7.568;2023-05-15T13:42:26;26.70;44.50
51476;DHT22;37554;50.362;7.568;2023-05-15T13:44:52;26.60;44.10
51476;DHT22;37554;50.362;7.568;2023-05-15T13:47:17;26.40;43.80
51476;DHT22;37554;50.362;7.568;2023-05-15T13:49:44;26.30;43.60
51476;DHT22;37554;50.362;7.568;2023-05-15T13:52:10;26.30;44.00
51476;DHT22;37554;50.362;7.568;2023-05-15T13:54:36;26.60;44.10
51476;DHT22;37554;50.362;7.568;2023-05-15T13:57:01;26.90;44.00
51476;DHT22;37554;50.362;7.568;2023-05-15T13:59:27;27.30;44.60
51476;DHT22;37554;50.362;7.568;2023-05-15T14:01:53;27.80;43.80
51476;DHT22;37554;50.362;7.568;2023-05-15T14:04:18;28.30;43.70
51476;DHT22;37554;50.362;7.568;2023-05-15T14:06:44;28.70;43.70
51476;DHT22;37554;50.362;7.568;2023-05-15T14:09:10;28.50;41.40
51476;DHT22;37554;50.362;7.568;2023-05-15T14:11:36;28.00;40.90
51476;DHT22;37554;50.362;7.568;2023-05-15T14:14:01;27.70;41.00
51476;DHT22;37554;50.362;7.568;2023-05-15T14:16:28;27.50;41.10
51476;DHT22;37554;50.362;7.568;2023-05-15T14:18:53;27.20;40.90
51476;DHT22;37554;50.362;7.568;2023-05-15T14:21:19;27.10;41.40
51476;DHT22;37554;50.362;7.568;2023-05-15T14:23:45;27.00;41.00
51476;DHT22;37554;50.362;7.568;2023-05-15T14:26:10;26.90;41.40
51476;DHT22;37554;50.362;7.568;2023-05-15T14:28:36;26.80;41.50
51476;DHT22;37554;50.362;7.568;2023-05-15T14:31:03;26.80;41.50
51476;DHT22;37554;50.362;7.568;2023-05-15T14:33:28;26.80;41.50
51476;DHT22;37554;50.362;7.568;2023-05-15T14:35:54;26.90;41.40
51476;DHT22;37554;50.362;7.568;2023-05-15T14:38:19;26.90;41.60
51476;DHT22;37554;50.362;7.568;2023-05-15T14:40:45;26.90;41.10
51476;DHT22;37554;50.362;7.568;2023-05-15T14:43:11;26.90;40.90
51476;DHT22;37554;50.362;7.568;2023-05-15T14:45:36;26.80;40.50
51476;DHT22;37554;50.362;7.568;2023-05-15T14:48:02;26.80;40.30
51476;DHT22;37554;50.362;7.568;2023-05-15T14:50:28;26.80;40.50
51476;DHT22;37554;50.362;7.568;2023-05-15T14:52:53;26.80;40.50
51476;DHT22;37554;50.362;7.568;2023-05-15T14:55:19;26.80;40.10
51476;DHT22;37554;50.362;7.568;2023-05-15T14:57:46;27.10;39.80
51476;DHT22;37554;50.362;7.568;2023-05-15T15:00:14;27.40;39.00
51476;DHT22;37554;50.362;7.568;2023-05-15T15:02:43;27.60;39.00
51476;DHT22;37554;50.362;7.568;2023-05-15T15:05:09;27.50;38.30
51476;DHT22;37554;50.362;7.568;2023-05-15T15:08:00;27.40;37.80
51476;DHT22;37554;50.362;7.568;2023-05-15T15:10:27;27.20;37.40
51476;DHT22;37554;50.362;7.568;2023-05-15T15:12:53;27.20;38.10
51476;DHT22;37554;50.362;7.568;2023-05-15T15:15:19;27.10;38.20
51476;DHT22;37554;50.362;7.568;2023-05-15T15:17:45;27.00;38.20
51476;DHT22;37554;50.362;7.568;2023-05-15T15:20:11;26.80;38.10
51476;DHT22;37554;50.362;7.568;2023-05-15T15:22:37;26.70;38.00
51476;DHT22;37554;50.362;7.568;2023-05-15T15:25:05;26.50;38.20
51476;DHT22;37554;50.362;7.568;2023-05-15T15:27:31;26.40;38.40
51476;DHT22;37554;50.362;7.568;2023-05-15T15:29:58;26.20;38.40
51476;DHT22;37554;50.362;7.568;2023-05-15T15:32:23;26.10;38.30
51476;DHT22;37554;50.362;7.568;2023-05-15T15:34:49;26.00;38.60
51476;DHT22;37554;50.362;7.568;2023-05-15T15:37:15;26.00;38.60
51476;DHT22;37554;50.362;7.568;2023-05-15T15:39:40;25.90;38.60
51476;DHT22;37554;50.362;7.568;2023-05-15T15:42:06;25.80;38.60
51476;DHT22;37554;50.362;7.568;2023-05-15T15:44:34;25.80;38.80
51476;DHT22;37554;50.362;7.568;2023-05-15T15:47:00;25.80;38.60
51476;DHT22;37554;50.362;7.568;2023-05-15T15:49:26;25.70;39.40
51476;DHT22;37554;50.362;7.568;2023-05-15T15:51:52;25.70;39.00
51476;DHT22;37554;50.362;7.568;2023-05-15T15:54:18;25.70;38.90